createdAt,value
2022-10-26T00:09:43.713Z,99.90
2022-10-26T00:24:45.885Z,99.90
2022-10-26T00:39:47.854Z,99.90
2022-10-26T00:54:50.203Z,99.90
2022-10-26T01:09:53.364Z,99.90
2022-10-26T01:25:25.840Z,99.90
2022-10-26T01:40:51.985Z,99.90
2022-10-26T01:55:55.642Z,99.90
2022-10-26T02:11:24.842Z,99.90
2022-10-26T02:26:29.687Z,99.90
2022-10-26T02:41:34.211Z,99.90
2022-10-26T02:57:08.689Z,99.90
2022-10-26T03:12:10.578Z,99.90
2022-10-26T03:27:12.442Z,99.90
2022-10-26T03:42:14.366Z,99.90
2022-10-26T03:57:16.384Z,99.90
2022-10-26T04:12:18.264Z,99.90
2022-10-26T04:27:20.127Z,99.90
2022-10-26T04:42:22.001Z,99.90
2022-10-26T04:57:23.895Z,99.90
2022-10-26T05:12:25.788Z,99.90
2022-10-26T05:27:27.753Z,99.90
2022-10-26T05:42:29.677Z,99.90
2022-10-26T05:57:31.810Z,99.90
2022-10-26T06:12:34.051Z,99.90
2022-10-26T06:28:02.866Z,99.90
2022-10-26T06:43:09.584Z,99.90
2022-10-26T06:58:20.415Z,99.90
2022-10-26T07:13:22.260Z,99.90
2022-10-26T07:28:24.139Z,99.90
2022-10-26T07:43:26.058Z,99.90
2022-10-26T07:58:28.318Z,77.80
2022-10-26T08:13:30.454Z,65.30
2022-10-26T08:28:32.328Z,90.20
2022-10-26T08:43:47.333Z,99.40
2022-10-26T08:58:54.519Z,99.90
2022-10-26T09:14:21.027Z,99.90
2022-10-26T09:29:31.700Z,99.90
2022-10-26T09:44:58.107Z,99.90
2022-10-26T10:00:00.090Z,99.90
2022-10-26T10:15:02.120Z,99.90
2022-10-26T10:30:23.764Z,99.90
2022-10-26T10:45:29.030Z,99.90
2022-10-26T11:00:34.775Z,99.90
2022-10-26T11:15:40.374Z,99.90
2022-10-26T11:30:49.180Z,99.90
2022-10-26T11:46:08.850Z,99.10
2022-10-26T12:01:15.324Z,99.00
2022-10-26T12:16:32.339Z,99.70
2022-10-26T12:31:37.335Z,99.60
2022-10-26T12:46:40.672Z,99.90
2022-10-26T13:02:03.367Z,99.20
2022-10-26T13:17:07.132Z,99.40
2022-10-26T13:32:09.359Z,99.10
2022-10-26T13:47:17.911Z,99.40
2022-10-26T14:02:22.519Z,98.80
2022-10-26T14:17:26.493Z,99.10
2022-10-26T14:32:28.400Z,99.80
2022-10-26T14:47:35.042Z,99.90
2022-10-26T15:02:37.251Z,99.90
2022-10-26T15:17:42.813Z,99.90
2022-10-26T15:32:44.980Z,99.90
2022-10-26T15:47:47.437Z,99.90
2022-10-26T16:02:49.652Z,99.90
2022-10-26T16:17:52.589Z,99.90
2022-10-26T16:32:54.794Z,99.90
2022-10-26T16:47:56.918Z,99.90
2022-10-26T17:03:00.917Z,99.90
2022-10-26T17:18:02.876Z,99.90
2022-10-26T17:33:04.926Z,99.90
2022-10-26T17:48:06.816Z,99.90
2022-10-26T18:03:08.838Z,99.90
2022-10-26T18:18:10.727Z,99.90
2022-10-26T18:33:12.649Z,99.90
2022-10-26T18:48:15.422Z,99.90
2022-10-26T19:03:17.657Z,99.90
2022-10-26T19:18:19.488Z,99.90
2022-10-26T19:33:27.206Z,99.90
2022-10-26T19:48:29.083Z,99.90
2022-10-26T20:03:30.974Z,99.90
2022-10-26T20:18:32.882Z,99.90
2022-10-26T20:33:34.811Z,99.90
2022-10-26T20:48:38.799Z,99.90
2022-10-26T21:03:40.795Z,99.90
2022-10-26T21:18:42.922Z,99.90
2022-10-26T21:33:46.803Z,99.90
2022-10-26T21:48:48.698Z,99.90
2022-10-26T22:03:50.581Z,99.90
2022-10-26T22:18:55.194Z,99.90
2022-10-26T22:34:02.027Z,99.90
2022-10-26T22:49:06.797Z,99.90
2022-10-26T23:04:11.915Z,99.90
2022-10-26T23:19:13.826Z,99.90
2022-10-26T23:34:15.656Z,99.90
2022-10-26T23:49:17.555Z,99.90
